createdAt,value
2018-02-22T00:00:33.577Z,0.60
2018-02-22T00:03:01.537Z,0.60
2018-02-22T00:05:29.759Z,0.60
2018-02-22T00:07:57.237Z,0.60
2018-02-22T00:10:24.741Z,0.60
2018-02-22T00:12:52.214Z,0.50
2018-02-22T00:15:19.726Z,0.60
2018-02-22T00:17:48.108Z,0.60
2018-02-22T00:20:16.430Z,0.50
2018-02-22T00:22:43.904Z,0.50
2018-02-22T00:25:11.435Z,0.60
2018-02-22T00:27:38.895Z,0.50
2018-02-22T00:30:06.403Z,0.50
2018-02-22T00:32:33.891Z,0.50
2018-02-22T00:35:02.185Z,0.50
2018-02-22T00:37:29.661Z,0.50
2018-02-22T00:39:57.150Z,0.40
2018-02-22T00:42:24.658Z,0.50
2018-02-22T00:44:52.143Z,0.50
2018-02-22T00:47:19.607Z,0.50
2018-02-22T00:49:47.108Z,0.50
2018-02-22T00:52:14.577Z,0.50
2018-02-22T00:54:42.081Z,0.40
2018-02-22T00:57:09.546Z,0.40
2018-02-22T00:59:37.069Z,0.40
2018-02-22T01:02:04.545Z,0.50
2018-02-22T01:04:32.023Z,0.50
2018-02-22T01:06:59.483Z,0.60
2018-02-22T01:09:26.966Z,0.50
2018-02-22T01:11:55.273Z,0.30
2018-02-22T01:14:22.756Z,0.30
2018-02-22T01:16:50.273Z,0.30
2018-02-22T01:19:17.769Z,0.20
2018-02-22T01:21:45.299Z,0.20
2018-02-22T01:24:12.783Z,0.20
2018-02-22T01:26:40.305Z,0.30
2018-02-22T01:29:07.782Z,0.30
2018-02-22T01:31:35.432Z,0.30
2018-02-22T01:34:02.894Z,0.30
2018-02-22T01:36:30.364Z,0.10
2018-02-22T01:38:57.854Z,0.10
2018-02-22T01:41:25.338Z,0.20
2018-02-22T01:43:53.621Z,0.10
2018-02-22T01:46:21.852Z,0.20
2018-02-22T01:48:49.365Z,0.10
2018-02-22T01:51:16.826Z,0.10
2018-02-22T01:53:44.354Z,0.20
2018-02-22T01:56:11.841Z,0.20
2018-02-22T01:58:39.341Z,0.20
2018-02-22T02:01:06.832Z,0.30
2018-02-22T02:03:35.108Z,0.20
2018-02-22T02:06:03.435Z,0.20
2018-02-22T02:08:30.939Z,0.30
2018-02-22T02:10:59.195Z,0.20
2018-02-22T02:13:26.695Z,0.10
2018-02-22T02:15:54.929Z,0.00
2018-02-22T02:18:22.434Z,0.00
2018-02-22T02:20:49.894Z,0.00
2018-02-22T02:23:17.408Z,0.00
2018-02-22T02:25:44.928Z,-0.10
2018-02-22T02:28:12.434Z,-0.10
2018-02-22T02:30:39.901Z,-0.10
2018-02-22T02:33:08.173Z,-0.10
2018-02-22T02:35:35.645Z,-0.20
2018-02-22T02:38:03.947Z,-0.10
2018-02-22T02:40:31.406Z,-0.10
2018-02-22T02:42:58.920Z,-0.10
2018-02-22T02:45:26.420Z,-0.10
2018-02-22T02:47:53.911Z,-0.10
2018-02-22T02:50:21.443Z,-0.10
2018-02-22T02:52:49.098Z,-0.20
2018-02-22T02:55:16.572Z,-0.10
2018-02-22T02:57:44.072Z,-0.10
2018-02-22T03:00:11.542Z,-0.10
2018-02-22T03:02:39.804Z,-0.30
2018-02-22T03:05:07.290Z,-0.30
2018-02-22T03:07:34.779Z,-0.20
2018-02-22T03:10:02.267Z,-0.30
2018-02-22T03:12:29.769Z,-0.30
2018-02-22T03:14:57.252Z,-0.20
2018-02-22T03:17:24.771Z,-0.30
2018-02-22T03:19:53.003Z,-0.50
2018-02-22T03:22:20.490Z,-0.50
2018-02-22T03:24:49.334Z,-0.50
2018-02-22T03:27:16.794Z,-0.50
2018-02-22T03:29:44.296Z,-0.40
2018-02-22T03:32:11.767Z,-0.40
2018-02-22T03:34:40.046Z,-0.40
2018-02-22T03:37:08.286Z,-0.50
2018-02-22T03:39:35.786Z,-0.50
2018-02-22T03:42:03.259Z,-0.50
2018-02-22T03:44:30.780Z,-0.50
2018-02-22T03:46:59.024Z,-0.50
2018-02-22T03:49:26.520Z,-0.50
2018-02-22T03:51:54.756Z,-0.60
2018-02-22T03:54:22.251Z,-0.60
2018-02-22T03:56:50.500Z,-0.60
2018-02-22T03:59:18.000Z,-0.60
2018-02-22T04:01:45.558Z,-0.50
2018-02-22T04:04:13.019Z,-0.50
2018-02-22T04:06:40.594Z,-0.40
2018-02-22T04:09:08.113Z,-0.40
2018-02-22T04:11:36.353Z,-0.60
2018-02-22T04:14:04.705Z,-0.60
2018-02-22T04:16:32.176Z,-0.60
2018-02-22T04:18:59.700Z,-0.70
2018-02-22T04:21:27.956Z,-0.70
2018-02-22T04:23:55.443Z,-0.70
2018-02-22T04:26:23.016Z,-0.80
2018-02-22T04:28:50.576Z,-0.80
2018-02-22T04:31:18.048Z,-0.80
2018-02-22T04:33:45.558Z,-0.80
2018-02-22T04:36:13.805Z,-0.80
2018-02-22T04:38:41.309Z,-0.80
2018-02-22T04:41:08.778Z,-0.90
2018-02-22T04:43:36.293Z,-0.30
2018-02-22T04:46:03.768Z,-0.90
2018-02-22T04:48:32.075Z,-1.00
2018-02-22T04:51:00.293Z,-1.10
2018-02-22T04:53:28.697Z,-1.10
2018-02-22T04:55:56.944Z,-1.00
2018-02-22T04:58:24.565Z,-1.10
2018-02-22T05:00:52.042Z,-1.00
2018-02-22T05:03:19.560Z,-1.10
2018-02-22T05:05:47.792Z,-1.20
2018-02-22T05:08:15.304Z,-2.10
2018-02-22T05:10:42.788Z,-1.20
2018-02-22T05:13:10.521Z,-1.20
2018-02-22T05:15:38.004Z,-1.20
2018-02-22T05:18:05.463Z,-1.10
2018-02-22T05:20:32.951Z,-1.20
2018-02-22T05:23:00.433Z,-1.10
2018-02-22T05:25:28.704Z,-1.10
2018-02-22T05:27:56.171Z,-1.10
2018-02-22T05:30:24.441Z,-1.10
2018-02-22T05:32:52.673Z,-1.10
2018-02-22T05:35:20.174Z,-1.10
2018-02-22T05:37:48.424Z,-0.90
2018-02-22T05:40:15.938Z,-1.00
2018-02-22T05:42:43.413Z,-0.90
2018-02-22T05:45:10.920Z,-0.80
2018-02-22T05:47:38.392Z,-0.80
2018-02-22T05:50:06.670Z,-0.60
2018-02-22T05:52:34.192Z,-0.60
2018-02-22T05:55:01.679Z,-0.60
2018-02-22T05:57:29.925Z,-0.70
2018-02-22T05:59:57.428Z,-0.70
2018-02-22T06:02:24.923Z,-0.60
2018-02-22T06:04:52.429Z,-0.60
2018-02-22T06:07:20.681Z,-0.60
2018-02-22T06:09:48.171Z,-0.60
2018-02-22T06:12:15.649Z,-0.50
2018-02-22T06:14:43.138Z,-0.60
2018-02-22T06:17:10.616Z,-0.50
2018-02-22T06:19:38.450Z,-0.50
2018-02-22T06:22:05.923Z,-0.40
2018-02-22T06:24:34.850Z,-0.40
2018-02-22T06:27:03.184Z,-0.10
2018-02-22T06:29:30.669Z,-0.20
2018-02-22T06:31:58.163Z,0.00
2018-02-22T06:34:26.430Z,-0.10
2018-02-22T06:36:53.933Z,0.00
2018-02-22T06:39:21.421Z,0.00
2018-02-22T06:41:48.937Z,0.00
2018-02-22T06:44:16.406Z,0.00
2018-02-22T06:46:43.906Z,0.10
2018-02-22T06:49:12.253Z,0.10
2018-02-22T06:51:39.748Z,0.10
2018-02-22T06:54:07.980Z,0.30
2018-02-22T06:56:35.484Z,0.30
2018-02-22T06:59:03.724Z,0.20
2018-02-22T07:01:31.222Z,0.10
2018-02-22T07:03:59.469Z,0.00
2018-02-22T07:06:26.952Z,0.00
2018-02-22T07:08:55.212Z,0.20
2018-02-22T07:11:23.484Z,0.20
2018-02-22T07:13:50.975Z,0.10
2018-02-22T07:16:18.479Z,0.20
2018-02-22T07:18:45.939Z,0.30
2018-02-22T07:21:13.475Z,0.40
2018-02-22T07:23:40.927Z,0.50
2018-02-22T07:26:08.483Z,0.50
2018-02-22T07:28:35.949Z,0.50
2018-02-22T07:31:03.430Z,0.50
2018-02-22T07:33:30.915Z,0.60
2018-02-22T07:35:58.468Z,0.70
2018-02-22T07:38:25.956Z,0.90
2018-02-22T07:40:53.428Z,1.00
2018-02-22T07:43:20.940Z,1.00
2018-02-22T07:45:48.434Z,1.20
2018-02-22T07:48:15.951Z,1.30
2018-02-22T07:50:43.563Z,1.40
2018-02-22T07:53:11.051Z,1.60
2018-02-22T07:55:38.526Z,1.60
2018-02-22T07:58:06.003Z,1.60
2018-02-22T08:00:33.451Z,1.80
2018-02-22T08:03:00.958Z,2.00
2018-02-22T08:05:28.447Z,2.00
2018-02-22T08:07:55.931Z,2.00
2018-02-22T08:10:24.169Z,2.50
2018-02-22T08:12:51.697Z,2.40
2018-02-22T08:15:19.220Z,2.60
2018-02-22T08:17:46.689Z,2.70
2018-02-22T08:20:14.925Z,2.90
2018-02-22T08:22:42.412Z,2.90
2018-02-22T08:25:10.715Z,3.30
2018-02-22T08:27:38.179Z,3.30
2018-02-22T08:30:05.656Z,3.30
2018-02-22T08:32:33.174Z,3.40
2018-02-22T08:35:01.437Z,3.40
2018-02-22T08:37:29.711Z,3.70
2018-02-22T08:39:57.953Z,4.00
2018-02-22T08:42:25.475Z,4.00
2018-02-22T08:44:52.956Z,4.20
2018-02-22T08:47:20.484Z,4.30
2018-02-22T08:49:47.985Z,4.80
2018-02-22T08:52:15.470Z,5.50
2018-02-22T08:54:43.767Z,5.80
2018-02-22T08:57:11.336Z,5.80
2018-02-22T08:59:38.790Z,6.10
2018-02-22T09:02:06.255Z,6.30
2018-02-22T09:04:33.749Z,6.40
2018-02-22T09:07:01.220Z,6.90
2018-02-22T09:09:28.726Z,7.60
2018-02-22T09:11:56.211Z,7.80
2018-02-22T09:14:23.704Z,8.20
2018-02-22T09:16:51.181Z,8.80
2018-02-22T09:19:19.439Z,8.90
2018-02-22T09:21:46.946Z,8.90
2018-02-22T09:24:14.436Z,9.20
2018-02-22T09:26:41.916Z,9.20
2018-02-22T09:29:09.417Z,9.40
2018-02-22T09:31:36.879Z,9.50
2018-02-22T09:34:04.403Z,9.80
2018-02-22T09:36:32.655Z,9.60
2018-02-22T09:39:00.113Z,9.60
2018-02-22T09:41:28.378Z,9.40
2018-02-22T09:43:55.893Z,9.30
2018-02-22T09:46:23.631Z,9.60
2018-02-22T09:48:51.884Z,10.40
2018-02-22T09:51:19.350Z,10.40
2018-02-22T09:53:46.859Z,10.40
2018-02-22T09:56:14.356Z,10.70
2018-02-22T09:58:41.861Z,10.70
2018-02-22T10:01:09.341Z,10.40
2018-02-22T10:03:36.904Z,10.70
2018-02-22T10:06:04.368Z,11.10
2018-02-22T10:08:31.867Z,11.40
2018-02-22T10:10:59.345Z,11.40
2018-02-22T10:13:26.856Z,11.40
2018-02-22T10:15:54.408Z,11.60
2018-02-22T10:18:21.913Z,11.20
2018-02-22T10:20:50.140Z,11.50
2018-02-22T10:23:17.647Z,11.50
2018-02-22T10:25:45.886Z,12.20
2018-02-22T10:28:13.419Z,12.20
2018-02-22T10:30:40.895Z,12.10
2018-02-22T10:33:08.397Z,11.70
2018-02-22T10:35:36.628Z,11.90
2018-02-22T10:38:04.161Z,11.90
2018-02-22T10:40:31.635Z,11.50
2018-02-22T10:42:59.134Z,12.20
2018-02-22T10:45:27.377Z,13.10
2018-02-22T10:47:54.882Z,13.10
2018-02-22T10:50:23.112Z,13.60
2018-02-22T10:52:50.638Z,13.60
2018-02-22T10:55:18.120Z,13.90
2018-02-22T10:57:45.603Z,13.80
2018-02-22T11:00:13.079Z,13.70
2018-02-22T11:02:46.484Z,13.40
2018-02-22T11:05:14.741Z,13.70
2018-02-22T11:07:42.234Z,13.70
2018-02-22T11:10:09.715Z,13.60
2018-02-22T11:12:37.190Z,14.00
2018-02-22T11:15:04.739Z,14.10
2018-02-22T11:17:32.377Z,14.70
2018-02-22T11:19:59.868Z,15.10
2018-02-22T11:22:27.369Z,14.60
2018-02-22T11:24:55.616Z,14.90
2018-02-22T11:27:23.082Z,14.80
2018-02-22T11:29:50.588Z,14.50
2018-02-22T11:32:18.051Z,14.50
2018-02-22T11:34:45.557Z,14.80
2018-02-22T11:37:13.060Z,15.10
2018-02-22T11:39:40.553Z,15.30
2018-02-22T11:42:08.014Z,16.20
2018-02-22T11:44:35.510Z,16.20
2018-02-22T11:47:03.029Z,16.60
2018-02-22T11:49:30.529Z,16.80
2018-02-22T11:51:58.764Z,16.10
2018-02-22T11:54:26.263Z,16.10
2018-02-22T11:56:53.772Z,16.10
2018-02-22T11:59:21.276Z,16.50
2018-02-22T12:01:49.533Z,16.30
2018-02-22T12:04:17.044Z,16.30
2018-02-22T12:06:44.592Z,15.50
2018-02-22T12:09:12.073Z,16.00
2018-02-22T12:11:39.541Z,15.70
2018-02-22T12:14:07.028Z,15.70
2018-02-22T12:16:35.274Z,16.20
2018-02-22T12:19:02.802Z,16.20
2018-02-22T12:21:30.280Z,16.40
2018-02-22T12:23:57.776Z,16.90
2018-02-22T12:26:25.264Z,17.50
2018-02-22T12:28:52.763Z,18.20
2018-02-22T12:31:20.241Z,18.50
2018-02-22T12:33:47.748Z,18.80
2018-02-22T12:36:15.220Z,19.20
2018-02-22T12:38:42.745Z,19.30
2018-02-22T12:41:10.199Z,17.90
2018-02-22T12:43:37.707Z,18.20
2018-02-22T12:46:05.190Z,18.50
2018-02-22T12:48:32.726Z,18.10
2018-02-22T12:51:00.204Z,17.80
2018-02-22T12:53:27.662Z,18.10
2018-02-22T12:55:55.165Z,17.80
2018-02-22T12:58:22.642Z,18.50
2018-02-22T13:00:50.145Z,18.30
2018-02-22T13:03:19.005Z,19.40
2018-02-22T13:05:46.503Z,19.30
2018-02-22T13:08:13.978Z,18.90
2018-02-22T13:10:41.471Z,18.50
2018-02-22T13:13:08.930Z,18.70
2018-02-22T13:15:36.435Z,17.70
2018-02-22T13:18:04.670Z,16.60
2018-02-22T13:20:32.194Z,16.50
2018-02-22T13:22:59.690Z,16.80
2018-02-22T13:25:27.211Z,17.10
2018-02-22T13:27:54.727Z,17.20
2018-02-22T13:30:22.639Z,17.20
2018-02-22T13:33:01.840Z,16.60
2018-02-22T13:35:30.114Z,16.00
2018-02-22T13:38:19.112Z,16.00
2018-02-22T13:40:46.615Z,16.00
2018-02-22T13:43:14.095Z,16.40
2018-02-22T13:45:42.627Z,16.30
2018-02-22T13:48:10.115Z,16.30
2018-02-22T13:50:49.439Z,16.00
2018-02-22T13:53:16.911Z,15.10
2018-02-22T13:55:44.419Z,14.60
2018-02-22T13:58:11.900Z,14.30
2018-02-22T14:00:51.402Z,15.10
2018-02-22T14:03:18.864Z,15.70
2018-02-22T14:05:46.373Z,16.00
2018-02-22T14:08:25.761Z,16.30
2018-02-22T14:10:53.312Z,16.70
2018-02-22T14:13:20.768Z,16.70
2018-02-22T14:15:48.649Z,16.60
2018-02-22T14:18:16.136Z,16.80
2018-02-22T14:20:43.639Z,16.50
2018-02-22T14:23:11.898Z,16.40
2018-02-22T14:25:39.404Z,16.30
2018-02-22T14:28:06.929Z,15.80
2018-02-22T14:30:35.174Z,15.40
2018-02-22T14:33:02.661Z,15.30
2018-02-22T14:35:30.964Z,14.20
2018-02-22T14:37:58.440Z,14.20
2018-02-22T14:40:25.988Z,14.00
2018-02-22T14:42:53.465Z,13.30
2018-02-22T14:45:21.000Z,12.10
2018-02-22T14:47:48.478Z,11.40
2018-02-22T14:50:15.976Z,10.90
2018-02-22T14:52:44.203Z,10.10
2018-02-22T14:55:12.069Z,9.40
2018-02-22T14:57:39.518Z,9.20
2018-02-22T15:00:07.062Z,9.80
2018-02-22T15:02:34.528Z,9.80
2018-02-22T15:05:02.027Z,10.10
2018-02-22T15:07:29.483Z,9.90
2018-02-22T15:09:56.976Z,9.70
2018-02-22T15:12:25.210Z,9.20
2018-02-22T15:14:52.872Z,9.10
2018-02-22T15:17:20.337Z,9.00
2018-02-22T15:19:47.812Z,8.50
2018-02-22T15:22:15.309Z,7.80
2018-02-22T15:24:42.800Z,7.70
2018-02-22T15:27:10.305Z,7.60
2018-02-22T15:29:38.541Z,7.90
2018-02-22T15:32:06.820Z,8.00
2018-02-22T15:34:34.380Z,8.00
2018-02-22T15:37:01.879Z,8.00
2018-02-22T15:39:29.362Z,7.60
2018-02-22T15:41:57.487Z,7.50
2018-02-22T15:44:24.947Z,7.40
2018-02-22T15:46:52.482Z,7.50
2018-02-22T15:49:19.957Z,7.10
2018-02-22T15:51:47.450Z,6.90
2018-02-22T15:54:14.915Z,6.80
2018-02-22T15:56:42.417Z,6.60
2018-02-22T15:59:09.956Z,6.40
2018-02-22T16:01:37.478Z,6.50
2018-02-22T16:04:05.747Z,5.90
2018-02-22T16:06:34.036Z,6.10
2018-02-22T16:09:01.519Z,6.10
2018-02-22T16:11:29.352Z,6.00
2018-02-22T16:13:56.878Z,5.90
2018-02-22T16:16:24.375Z,5.60
2018-02-22T16:18:51.860Z,5.60
2018-02-22T16:21:19.456Z,5.60
2018-02-22T16:23:46.930Z,5.60
2018-02-22T16:26:14.442Z,5.40
2018-02-22T16:28:41.962Z,5.30
2018-02-22T16:31:09.466Z,5.10
2018-02-22T16:33:36.982Z,4.90
2018-02-22T16:36:04.483Z,4.70
2018-02-22T16:38:31.987Z,4.50
2018-02-22T16:41:00.241Z,4.30
2018-02-22T16:43:27.765Z,4.30
2018-02-22T16:45:55.232Z,4.20
2018-02-22T16:48:22.748Z,4.20
2018-02-22T16:50:50.221Z,4.10
2018-02-22T16:53:17.722Z,4.30
2018-02-22T16:55:45.198Z,4.20
2018-02-22T16:58:12.679Z,4.10
2018-02-22T17:00:40.215Z,4.00
2018-02-22T17:03:07.709Z,4.00
2018-02-22T17:05:35.959Z,3.80
2018-02-22T17:08:04.576Z,3.80
2018-02-22T17:10:32.055Z,3.70
2018-02-22T17:12:59.597Z,3.80
2018-02-22T17:15:27.065Z,3.70
2018-02-22T17:17:54.575Z,3.80
2018-02-22T17:20:22.069Z,3.60
2018-02-22T17:22:49.573Z,3.60
2018-02-22T17:25:16.544Z,3.70
2018-02-22T17:27:49.731Z,3.60
2018-02-22T17:30:23.670Z,3.50
2018-02-22T17:32:51.184Z,3.50
2018-02-22T17:35:19.421Z,3.60
2018-02-22T17:37:56.875Z,3.50
2018-02-22T17:40:39.039Z,3.50
2018-02-22T17:43:06.570Z,3.40
2018-02-22T17:45:34.057Z,3.30
2018-02-22T17:48:01.567Z,3.20
2018-02-22T17:50:29.043Z,3.20
2018-02-22T17:52:56.556Z,3.20
2018-02-22T17:55:25.781Z,3.20
2018-02-22T17:57:53.301Z,3.20
2018-02-22T18:00:21.531Z,3.20
2018-02-22T18:02:49.124Z,3.10
2018-02-22T18:05:16.624Z,3.20
2018-02-22T18:07:44.118Z,3.10
2018-02-22T18:10:12.348Z,3.10
2018-02-22T18:12:40.576Z,3.30
2018-02-22T18:15:08.062Z,3.30
2018-02-22T18:17:36.328Z,3.40
2018-02-22T18:20:03.852Z,3.30
2018-02-22T18:22:33.045Z,3.40
2018-02-22T18:25:00.800Z,3.10
2018-02-22T18:27:28.299Z,3.10
2018-02-22T18:29:55.796Z,3.10
2018-02-22T18:32:24.027Z,3.10
2018-02-22T18:34:51.520Z,3.10
2018-02-22T18:37:25.390Z,3.10
2018-02-22T18:39:52.874Z,3.10
2018-02-22T18:42:21.108Z,3.00
2018-02-22T18:44:54.275Z,3.00
2018-02-22T18:47:21.774Z,3.10
2018-02-22T18:49:49.272Z,3.00
2018-02-22T18:52:16.763Z,2.90
2018-02-22T18:54:44.306Z,2.80
2018-02-22T18:57:12.547Z,2.70
2018-02-22T18:59:40.058Z,2.70
2018-02-22T19:02:07.604Z,2.70
2018-02-22T19:04:35.101Z,2.70
2018-02-22T19:07:02.578Z,2.60
2018-02-22T19:09:30.179Z,2.50
2018-02-22T19:11:57.659Z,2.50
2018-02-22T19:14:25.152Z,2.40
2018-02-22T19:16:52.603Z,2.30
2018-02-22T19:19:20.107Z,2.30
2018-02-22T19:21:47.570Z,2.30
2018-02-22T19:24:15.134Z,2.30
2018-02-22T19:26:42.598Z,2.20
2018-02-22T19:29:10.067Z,2.20
2018-02-22T19:31:37.601Z,2.20
2018-02-22T19:34:05.112Z,2.20
2018-02-22T19:36:32.603Z,2.20
2018-02-22T19:39:00.123Z,2.10
2018-02-22T19:41:27.656Z,2.00
2018-02-22T19:43:55.149Z,2.10
2018-02-22T19:46:22.665Z,2.00
2018-02-22T19:48:50.212Z,2.00
2018-02-22T19:51:27.632Z,2.00
2018-02-22T19:53:55.116Z,2.00
2018-02-22T19:56:22.637Z,1.90
2018-02-22T19:58:50.191Z,1.90
2018-02-22T20:01:17.688Z,1.90
2018-02-22T20:03:45.221Z,2.00
2018-02-22T20:06:12.737Z,1.90
2018-02-22T20:08:40.204Z,1.80
2018-02-22T20:11:07.745Z,1.70
2018-02-22T20:13:36.036Z,1.70
2018-02-22T20:16:03.535Z,1.70
2018-02-22T20:18:31.007Z,1.80
2018-02-22T20:20:58.532Z,1.80
2018-02-22T20:23:26.016Z,1.70
2018-02-22T20:25:53.520Z,1.70
2018-02-22T20:28:20.988Z,1.80
2018-02-22T20:30:48.512Z,1.70
2018-02-22T20:33:16.765Z,1.50
2018-02-22T20:35:44.278Z,1.40
2018-02-22T20:38:11.752Z,1.40
2018-02-22T20:40:40.108Z,1.40
2018-02-22T20:43:07.617Z,1.50
2018-02-22T20:45:35.137Z,1.60
2018-02-22T20:48:02.649Z,1.70
2018-02-22T20:50:30.916Z,1.70
2018-02-22T20:52:58.387Z,1.60
2018-02-22T20:55:25.875Z,1.60
2018-02-22T20:57:53.358Z,1.50
2018-02-22T21:00:20.874Z,1.30
2018-02-22T21:02:49.107Z,1.30
2018-02-22T21:05:16.633Z,1.30
2018-02-22T21:07:44.302Z,1.50
2018-02-22T21:10:11.887Z,1.30
2018-02-22T21:12:39.366Z,1.30
2018-02-22T21:15:06.880Z,1.40
2018-02-22T21:17:34.358Z,1.40
2018-02-22T21:20:01.867Z,1.40
2018-02-22T21:22:29.348Z,1.40
2018-02-22T21:24:56.831Z,1.30
2018-02-22T21:27:24.359Z,1.40
2018-02-22T21:29:51.834Z,1.40
2018-02-22T21:32:19.344Z,1.40
2018-02-22T21:34:47.579Z,1.40
2018-02-22T21:37:15.109Z,1.40
2018-02-22T21:39:42.585Z,1.50
2018-02-22T21:42:10.074Z,1.30
2018-02-22T21:44:37.583Z,1.30
2018-02-22T21:47:05.088Z,1.30
2018-02-22T21:49:32.599Z,1.30
2018-02-22T21:52:00.158Z,1.30
2018-02-22T21:54:27.646Z,1.20
2018-02-22T21:56:55.906Z,1.10
2018-02-22T21:59:23.374Z,1.10
2018-02-22T22:01:50.881Z,1.20
2018-02-22T22:04:18.347Z,1.30
2018-02-22T22:06:46.620Z,1.30
2018-02-22T22:09:15.028Z,1.20
2018-02-22T22:11:42.523Z,1.30
2018-02-22T22:14:10.001Z,1.30
2018-02-22T22:16:38.262Z,1.10
2018-02-22T22:19:05.752Z,1.10
2018-02-22T22:21:34.024Z,1.20
2018-02-22T22:24:02.282Z,1.10
2018-02-22T22:26:29.776Z,1.10
2018-02-22T22:28:57.251Z,1.00
2018-02-22T22:31:24.752Z,1.00
2018-02-22T22:33:52.217Z,0.90
2018-02-22T22:36:19.747Z,0.80
2018-02-22T22:38:47.214Z,0.80
2018-02-22T22:41:14.731Z,0.80
2018-02-22T22:43:42.214Z,0.80
2018-02-22T22:46:09.722Z,0.90
2018-02-22T22:48:37.208Z,0.80
2018-02-22T22:51:04.761Z,0.80
2018-02-22T22:53:32.226Z,0.70
2018-02-22T22:55:59.719Z,0.60
2018-02-22T22:58:27.236Z,0.60
2018-02-22T23:00:54.743Z,0.60
2018-02-22T23:03:22.226Z,0.70
2018-02-22T23:05:49.762Z,0.70
2018-02-22T23:08:17.230Z,0.70
2018-02-22T23:10:45.710Z,0.60
2018-02-22T23:13:13.947Z,0.60
2018-02-22T23:15:41.415Z,0.60
2018-02-22T23:18:08.931Z,0.60
2018-02-22T23:20:36.412Z,0.70
2018-02-22T23:23:03.914Z,0.70
2018-02-22T23:25:32.182Z,0.60
2018-02-22T23:27:59.712Z,0.60
2018-02-22T23:30:27.208Z,0.60
2018-02-22T23:32:55.468Z,0.50
2018-02-22T23:35:22.937Z,0.40
2018-02-22T23:37:50.433Z,0.50
2018-02-22T23:40:19.535Z,0.50
2018-02-22T23:42:47.092Z,0.40
2018-02-22T23:45:14.589Z,0.50
2018-02-22T23:47:42.108Z,0.50
2018-02-22T23:50:09.567Z,0.60
2018-02-22T23:52:37.051Z,0.60
2018-02-22T23:55:04.526Z,0.50
2018-02-22T23:57:32.034Z,0.60
2018-02-22T23:59:59.504Z,0.60
